ASX067 EHAM-LOWW
Flight info
| Callsign | ASX067 |
|---|---|
| Flight time | 1h 24m |
| Altitude | 35000 |
| Route | ARNEM L620 HMM DCT NOMKA DCT OMELO DCT EVIKU DCT BITSI DCT MIKOV MIKOV8W |
| Aircraft | A320/M-SDE3FGHIRWY/LB1 |
Departure
| Time | 2026-05-05 19:57 |
|---|---|
| Airport | Amsterdam Airport Schiphol (EHAM) |
Arrival
| Time | 2026-05-05 21:21 |
|---|---|
| Airport | Vienna International Airport (LOWW) |
| Time | Latitude | Longitude | Altitude | Speed | Heading |
|---|---|---|---|---|---|
| 2026-05-05 19:25 | 52.31000 | 4.77118 | -1 ft | 0 kts | 183° |
| 2026-05-05 19:43 | 52.31024 | 4.77118 | -1 ft | 4 kts | 173° |
| 2026-05-05 19:44 | 52.31051 | 4.77110 | -1 ft | 4 kts | 171° |
| 2026-05-05 19:44 | 52.31072 | 4.77112 | -1 ft | 2 kts | 237° |
| 2026-05-05 19:44 | 52.31078 | 4.77140 | -1 ft | 1 kts | 257° |
| 2026-05-05 19:47 | 52.31079 | 4.77107 | -1 ft | 10 kts | 272° |
| 2026-05-05 19:48 | 52.31099 | 4.76964 | -1 ft | 16 kts | 309° |
| 2026-05-05 19:48 | 52.31210 | 4.77005 | -1 ft | 19 kts | 34° |
| 2026-05-05 19:48 | 52.31316 | 4.77120 | -1 ft | 17 kts | 33° |
| 2026-05-05 19:48 | 52.31425 | 4.77193 | -1 ft | 18 kts | 4° |
| 2026-05-05 19:49 | 52.31541 | 4.77196 | -1 ft | 14 kts | 343° |
| 2026-05-05 19:49 | 52.31569 | 4.77108 | -1 ft | 15 kts | 270° |
| 2026-05-05 19:49 | 52.31561 | 4.76871 | -1 ft | 15 kts | 266° |
| 2026-05-05 19:49 | 52.31555 | 4.76687 | -1 ft | 18 kts | 267° |
| 2026-05-05 19:50 | 52.31547 | 4.76482 | -1 ft | 20 kts | 266° |
| 2026-05-05 19:50 | 52.31540 | 4.76247 | -1 ft | 21 kts | 267° |
| 2026-05-05 19:50 | 52.31531 | 4.76006 | -1 ft | 22 kts | 266° |
| 2026-05-05 19:50 | 52.31523 | 4.75744 | -1 ft | 24 kts | 267° |
| 2026-05-05 19:51 | 52.31512 | 4.75466 | -1 ft | 22 kts | 267° |
| 2026-05-05 19:51 | 52.31504 | 4.75226 | -1 ft | 22 kts | 267° |
| 2026-05-05 19:51 | 52.31496 | 4.74972 | -1 ft | 23 kts | 266° |
| 2026-05-05 19:51 | 52.31487 | 4.74703 | -1 ft | 25 kts | 267° |
| 2026-05-05 19:52 | 52.31478 | 4.74439 | -1 ft | 21 kts | 266° |
| 2026-05-05 19:52 | 52.31463 | 4.74225 | -1 ft | 18 kts | 248° |
| 2026-05-05 19:52 | 52.31364 | 4.74136 | -1 ft | 16 kts | 187° |
| 2026-05-05 19:52 | 52.31244 | 4.74124 | -1 ft | 20 kts | 183° |
| 2026-05-05 19:53 | 52.31094 | 4.74113 | -1 ft | 21 kts | 182° |
| 2026-05-05 19:53 | 52.31000 | 4.74104 | -1 ft | 20 kts | 184° |
| 2026-05-05 19:53 | 52.30787 | 4.74083 | -1 ft | 24 kts | 183° |
| 2026-05-05 19:53 | 52.30676 | 4.74074 | -1 ft | 23 kts | 183° |
| 2026-05-05 19:54 | 52.30529 | 4.74062 | -1 ft | 20 kts | 183° |
| 2026-05-05 19:54 | 52.30423 | 4.74031 | -1 ft | 12 kts | 221° |
| 2026-05-05 19:54 | 52.30408 | 4.73920 | -1 ft | 0 kts | 275° |
| 2026-05-05 19:54 | 52.30408 | 4.73921 | -1 ft | 0 kts | 275° |
| 2026-05-05 19:55 | 52.30408 | 4.73916 | -1 ft | 3 kts | 275° |
| 2026-05-05 19:55 | 52.30420 | 4.73802 | -3 ft | 12 kts | 299° |
| 2026-05-05 19:55 | 52.30495 | 4.73764 | -3 ft | 13 kts | 4° |
| 2026-05-05 19:56 | 52.30610 | 4.73777 | -3 ft | 26 kts | 4° |
| 2026-05-05 19:56 | 52.31042 | 4.73825 | -1 ft | 96 kts | 5° |
| 2026-05-05 19:56 | 52.31889 | 4.73910 | 0 ft | 148 kts | 3° |
| 2026-05-05 19:56 | 52.32992 | 4.73991 | 428 ft | 161 kts | 4° |
| 2026-05-05 19:57 | 52.34086 | 4.74402 | 1149 ft | 162 kts | 24° |
| 2026-05-05 19:57 | 52.35132 | 4.75096 | 1896 ft | 166 kts | 24° |
| 2026-05-05 19:57 | 52.36273 | 4.75882 | 2182 ft | 192 kts | 24° |
| 2026-05-05 19:57 | 52.37578 | 4.76798 | 2610 ft | 216 kts | 30° |
| 2026-05-05 19:58 | 52.38768 | 4.78473 | 3138 ft | 236 kts | 46° |
| 2026-05-05 19:58 | 52.39929 | 4.80448 | 3983 ft | 244 kts | 45° |
| 2026-05-05 19:58 | 52.41124 | 4.82474 | 4932 ft | 250 kts | 45° |
| 2026-05-05 19:58 | 52.42136 | 4.84822 | 5788 ft | 259 kts | 67° |
| 2026-05-05 19:59 | 52.42406 | 4.87796 | 6584 ft | 271 kts | 88° |
| 2026-05-05 19:59 | 52.42415 | 4.90916 | 7422 ft | 276 kts | 88° |
| 2026-05-05 19:59 | 52.42401 | 4.94086 | 8278 ft | 281 kts | 93° |
| 2026-05-05 19:59 | 52.41980 | 4.97245 | 9123 ft | 288 kts | 111° |
| 2026-05-05 20:00 | 52.40964 | 5.00100 | 9968 ft | 294 kts | 130° |
| 2026-05-05 20:00 | 52.39425 | 5.02410 | 10434 ft | 312 kts | 144° |
| 2026-05-05 20:00 | 52.37581 | 5.04547 | 10701 ft | 336 kts | 145° |
| 2026-05-05 20:00 | 52.35639 | 5.06897 | 10950 ft | 358 kts | 139° |
| 2026-05-05 20:01 | 52.33902 | 5.09883 | 11525 ft | 366 kts | 127° |
| 2026-05-05 20:01 | 52.32534 | 5.13415 | 12258 ft | 370 kts | 116° |
| 2026-05-05 20:01 | 52.31555 | 5.17260 | 13001 ft | 374 kts | 111° |
| 2026-05-05 20:01 | 52.30609 | 5.21244 | 13743 ft | 378 kts | 111° |
| 2026-05-05 20:02 | 52.29656 | 5.25263 | 14413 ft | 381 kts | 111° |
| 2026-05-05 20:02 | 52.28697 | 5.29310 | 15089 ft | 384 kts | 111° |
| 2026-05-05 20:02 | 52.27713 | 5.33443 | 15757 ft | 386 kts | 111° |
| 2026-05-05 20:02 | 52.26743 | 5.37489 | 16401 ft | 389 kts | 111° |
| 2026-05-05 20:03 | 52.25764 | 5.41565 | 17035 ft | 392 kts | 111° |
| 2026-05-05 20:03 | 52.24762 | 5.45718 | 17663 ft | 394 kts | 111° |
| 2026-05-05 20:03 | 52.23752 | 5.49894 | 18281 ft | 397 kts | 111° |
| 2026-05-05 20:03 | 52.22736 | 5.54096 | 18800 ft | 400 kts | 112° |
| 2026-05-05 20:04 | 52.21710 | 5.58345 | 19298 ft | 403 kts | 112° |
| 2026-05-05 20:04 | 52.20677 | 5.62613 | 19807 ft | 406 kts | 112° |
| 2026-05-05 20:04 | 52.19634 | 5.66920 | 20303 ft | 409 kts | 113° |
| 2026-05-05 20:04 | 52.18585 | 5.71249 | 20798 ft | 412 kts | 113° |
| 2026-05-05 20:05 | 52.17523 | 5.75606 | 21286 ft | 415 kts | 113° |
| 2026-05-05 20:05 | 52.16451 | 5.79993 | 21763 ft | 418 kts | 114° |
| 2026-05-05 20:05 | 52.15370 | 5.84407 | 22244 ft | 421 kts | 114° |
| 2026-05-05 20:05 | 52.14279 | 5.88859 | 22720 ft | 424 kts | 114° |
| 2026-05-05 20:06 | 52.13180 | 5.93334 | 23180 ft | 427 kts | 114° |
| 2026-05-05 20:06 | 52.12070 | 5.97826 | 23607 ft | 429 kts | 114° |
| 2026-05-05 20:06 | 52.10951 | 6.02349 | 23996 ft | 431 kts | 114° |
| 2026-05-05 20:06 | 52.09886 | 6.06924 | 24386 ft | 435 kts | 109° |
| 2026-05-05 20:07 | 52.09208 | 6.11740 | 24764 ft | 439 kts | 102° |
| 2026-05-05 20:07 | 52.08711 | 6.16657 | 25138 ft | 441 kts | 102° |
| 2026-05-05 20:07 | 52.08206 | 6.21596 | 25517 ft | 443 kts | 102° |
| 2026-05-05 20:07 | 52.07694 | 6.26545 | 25886 ft | 445 kts | 102° |
| 2026-05-05 20:08 | 52.07175 | 6.31519 | 26241 ft | 447 kts | 102° |
| 2026-05-05 20:08 | 52.06647 | 6.36514 | 26585 ft | 449 kts | 102° |
| 2026-05-05 20:08 | 52.06114 | 6.41526 | 26925 ft | 451 kts | 102° |
| 2026-05-05 20:08 | 52.05581 | 6.46557 | 27258 ft | 453 kts | 102° |
| 2026-05-05 20:09 | 52.05045 | 6.51603 | 27590 ft | 454 kts | 102° |
| 2026-05-05 20:09 | 52.04510 | 6.56609 | 27918 ft | 456 kts | 102° |
| 2026-05-05 20:09 | 52.03964 | 6.61685 | 28235 ft | 458 kts | 103° |
| 2026-05-05 20:09 | 52.03410 | 6.66786 | 28552 ft | 459 kts | 103° |
| 2026-05-05 20:10 | 52.02856 | 6.71877 | 29001 ft | 457 kts | 103° |
| 2026-05-05 20:10 | 52.02297 | 6.76951 | 29471 ft | 455 kts | 104° |
| 2026-05-05 20:10 | 52.01646 | 6.81972 | 29933 ft | 453 kts | 106° |
| 2026-05-05 20:10 | 52.00895 | 6.86917 | 30329 ft | 450 kts | 108° |
| 2026-05-05 20:11 | 52.00082 | 6.91821 | 30725 ft | 449 kts | 109° |
| 2026-05-05 20:11 | 51.99247 | 6.96698 | 31111 ft | 447 kts | 109° |
| 2026-05-05 20:11 | 51.98420 | 7.01554 | 31502 ft | 446 kts | 109° |
| 2026-05-05 20:11 | 51.97613 | 7.06402 | 31886 ft | 445 kts | 109° |
| 2026-05-05 20:12 | 51.96820 | 7.11246 | 32276 ft | 443 kts | 109° |
| 2026-05-05 20:12 | 51.95999 | 7.16053 | 32654 ft | 442 kts | 110° |
| 2026-05-05 20:12 | 51.95132 | 7.20818 | 33036 ft | 440 kts | 111° |
| 2026-05-05 20:12 | 51.94241 | 7.25553 | 33419 ft | 439 kts | 111° |
| 2026-05-05 20:13 | 51.93342 | 7.30273 | 33811 ft | 437 kts | 111° |
| 2026-05-05 20:13 | 51.92446 | 7.34979 | 34136 ft | 437 kts | 111° |
| 2026-05-05 20:13 | 51.91554 | 7.39685 | 34408 ft | 437 kts | 111° |
| 2026-05-05 20:13 | 51.90664 | 7.44402 | 34652 ft | 438 kts | 111° |
| 2026-05-05 20:14 | 51.89774 | 7.49134 | 34817 ft | 440 kts | 111° |
| 2026-05-05 20:14 | 51.87986 | 7.58655 | 34853 ft | 443 kts | 111° |
| 2026-05-05 20:15 | 51.86183 | 7.68195 | 34851 ft | 443 kts | 111° |
| 2026-05-05 20:15 | 51.84547 | 7.77828 | 34854 ft | 445 kts | 107° |
| 2026-05-05 20:16 | 51.83297 | 7.87653 | 34848 ft | 447 kts | 105° |
| 2026-05-05 20:16 | 51.82101 | 7.97512 | 34843 ft | 446 kts | 105° |
| 2026-05-05 20:17 | 51.80958 | 8.06202 | 34832 ft | 446 kts | 107° |
| 2026-05-05 20:17 | 51.79596 | 8.15975 | 34847 ft | 446 kts | 107° |
| 2026-05-05 20:18 | 51.78225 | 8.25735 | 34835 ft | 446 kts | 107° |
| 2026-05-05 20:18 | 51.76865 | 8.35491 | 34841 ft | 445 kts | 107° |
| 2026-05-05 20:19 | 51.75508 | 8.45246 | 34851 ft | 445 kts | 107° |
| 2026-05-05 20:19 | 51.74141 | 8.54976 | 34849 ft | 445 kts | 107° |
| 2026-05-05 20:20 | 51.72765 | 8.64692 | 34846 ft | 444 kts | 107° |
| 2026-05-05 20:20 | 51.71383 | 8.74396 | 34847 ft | 444 kts | 107° |
| 2026-05-05 20:21 | 51.70004 | 8.84020 | 34844 ft | 443 kts | 107° |
| 2026-05-05 20:21 | 51.68603 | 8.93695 | 34841 ft | 443 kts | 108° |
| 2026-05-05 20:22 | 51.67198 | 9.03362 | 34839 ft | 443 kts | 108° |
| 2026-05-05 20:22 | 51.65786 | 9.13011 | 34837 ft | 442 kts | 108° |
| 2026-05-05 20:23 | 51.64372 | 9.22643 | 34835 ft | 442 kts | 108° |
| 2026-05-05 20:23 | 51.62955 | 9.32265 | 34840 ft | 442 kts | 108° |
| 2026-05-05 20:24 | 51.61520 | 9.41884 | 34833 ft | 442 kts | 108° |
| 2026-05-05 20:24 | 51.60076 | 9.51482 | 34829 ft | 442 kts | 108° |
| 2026-05-05 20:25 | 51.58627 | 9.61078 | 34825 ft | 441 kts | 108° |
| 2026-05-05 20:25 | 51.57175 | 9.70674 | 34818 ft | 441 kts | 108° |
| 2026-05-05 20:26 | 51.55715 | 9.80267 | 34817 ft | 442 kts | 108° |
| 2026-05-05 20:26 | 51.54247 | 9.89845 | 34809 ft | 442 kts | 108° |
| 2026-05-05 20:27 | 51.52764 | 9.99425 | 34803 ft | 442 kts | 108° |
| 2026-05-05 20:27 | 51.51272 | 10.08997 | 34805 ft | 442 kts | 109° |
| 2026-05-05 20:28 | 51.49781 | 10.18553 | 34807 ft | 441 kts | 109° |
| 2026-05-05 20:28 | 51.48287 | 10.28104 | 34805 ft | 441 kts | 109° |
| 2026-05-05 20:29 | 51.46779 | 10.37646 | 34808 ft | 441 kts | 109° |
| 2026-05-05 20:29 | 51.45261 | 10.47179 | 34806 ft | 441 kts | 109° |
| 2026-05-05 20:30 | 51.43742 | 10.56705 | 34811 ft | 441 kts | 109° |
| 2026-05-05 20:30 | 51.42247 | 10.66169 | 34810 ft | 441 kts | 109° |
| 2026-05-05 20:31 | 51.40736 | 10.75696 | 34811 ft | 441 kts | 109° |
| 2026-05-05 20:31 | 51.39209 | 10.85210 | 34807 ft | 441 kts | 109° |
| 2026-05-05 20:32 | 51.37677 | 10.94712 | 34801 ft | 441 kts | 109° |
| 2026-05-05 20:32 | 51.36140 | 11.04223 | 34802 ft | 441 kts | 109° |
| 2026-05-05 20:33 | 51.34598 | 11.13717 | 34798 ft | 442 kts | 109° |
| 2026-05-05 20:33 | 51.33040 | 11.23226 | 34803 ft | 442 kts | 109° |
| 2026-05-05 20:34 | 51.31471 | 11.32725 | 34802 ft | 442 kts | 109° |
| 2026-05-05 20:34 | 51.29895 | 11.42241 | 34794 ft | 443 kts | 109° |
| 2026-05-05 20:35 | 51.28311 | 11.51760 | 34788 ft | 444 kts | 109° |
| 2026-05-05 20:35 | 51.26715 | 11.61285 | 34789 ft | 444 kts | 109° |
| 2026-05-05 20:36 | 51.25112 | 11.70815 | 34778 ft | 445 kts | 109° |
| 2026-05-05 20:36 | 51.23491 | 11.80361 | 34782 ft | 446 kts | 109° |
| 2026-05-05 20:37 | 51.21860 | 11.89916 | 34778 ft | 447 kts | 109° |
| 2026-05-05 20:37 | 51.20223 | 11.99482 | 34776 ft | 448 kts | 109° |
| 2026-05-05 20:38 | 51.18852 | 12.07443 | 34773 ft | 448 kts | 109° |
| 2026-05-05 20:38 | 51.17196 | 12.17031 | 34775 ft | 449 kts | 109° |
| 2026-05-05 20:39 | 51.15527 | 12.26641 | 34788 ft | 450 kts | 109° |
| 2026-05-05 20:39 | 51.13847 | 12.36258 | 34798 ft | 451 kts | 109° |
| 2026-05-05 20:40 | 51.12152 | 12.45876 | 34806 ft | 452 kts | 110° |
| 2026-05-05 20:40 | 51.10446 | 12.55503 | 34811 ft | 452 kts | 110° |
| 2026-05-05 20:41 | 51.08743 | 12.65125 | 34810 ft | 452 kts | 110° |
| 2026-05-05 20:41 | 51.07030 | 12.74751 | 34805 ft | 452 kts | 110° |
| 2026-05-05 20:42 | 51.05298 | 12.84372 | 34796 ft | 453 kts | 110° |
| 2026-05-05 20:42 | 51.03555 | 12.93985 | 34789 ft | 453 kts | 110° |
| 2026-05-05 20:43 | 51.01811 | 13.03609 | 34777 ft | 453 kts | 110° |
| 2026-05-05 20:43 | 51.00055 | 13.13221 | 34773 ft | 454 kts | 110° |
| 2026-05-05 20:44 | 50.98292 | 13.22836 | 34770 ft | 454 kts | 110° |
| 2026-05-05 20:44 | 50.96520 | 13.32455 | 34770 ft | 454 kts | 110° |
| 2026-05-05 20:45 | 50.93856 | 13.46831 | 34768 ft | 455 kts | 110° |
| 2026-05-05 20:45 | 50.92060 | 13.56452 | 34769 ft | 456 kts | 110° |
| 2026-05-05 20:46 | 50.90248 | 13.66097 | 34769 ft | 457 kts | 110° |
| 2026-05-05 20:46 | 50.88420 | 13.75764 | 34766 ft | 458 kts | 110° |
| 2026-05-05 20:47 | 50.86579 | 13.85433 | 34766 ft | 459 kts | 110° |
| 2026-05-05 20:47 | 50.84609 | 13.95034 | 34762 ft | 456 kts | 118° |
| 2026-05-05 20:48 | 50.81282 | 14.03410 | 34757 ft | 446 kts | 135° |
| 2026-05-05 20:48 | 50.76815 | 14.10134 | 34758 ft | 443 kts | 141° |
| 2026-05-05 20:49 | 50.72264 | 14.16708 | 34757 ft | 444 kts | 141° |
| 2026-05-05 20:49 | 50.67706 | 14.23280 | 34756 ft | 444 kts | 141° |
| 2026-05-05 20:50 | 50.63166 | 14.29788 | 34756 ft | 444 kts | 141° |
| 2026-05-05 20:50 | 50.58590 | 14.36326 | 34751 ft | 445 kts | 141° |
| 2026-05-05 20:51 | 50.54010 | 14.42866 | 34746 ft | 445 kts | 141° |
| 2026-05-05 20:51 | 50.49413 | 14.49398 | 34746 ft | 445 kts | 141° |
| 2026-05-05 20:52 | 50.44815 | 14.55944 | 34733 ft | 446 kts | 140° |
| 2026-05-05 20:52 | 50.40331 | 14.62680 | 34726 ft | 447 kts | 139° |
| 2026-05-05 20:53 | 50.35896 | 14.69531 | 34725 ft | 448 kts | 139° |
| 2026-05-05 20:53 | 50.31446 | 14.76351 | 34732 ft | 448 kts | 139° |
| 2026-05-05 20:54 | 50.26961 | 14.83110 | 34731 ft | 447 kts | 139° |
| 2026-05-05 20:54 | 50.22467 | 14.89833 | 34724 ft | 447 kts | 139° |
| 2026-05-05 20:55 | 50.17973 | 14.96559 | 34730 ft | 448 kts | 139° |
| 2026-05-05 20:55 | 50.13477 | 15.03272 | 34732 ft | 448 kts | 139° |
| 2026-05-05 20:56 | 50.08968 | 15.09984 | 34741 ft | 448 kts | 139° |
| 2026-05-05 20:56 | 50.04465 | 15.16694 | 34740 ft | 448 kts | 139° |
| 2026-05-05 20:57 | 49.99957 | 15.23388 | 34743 ft | 448 kts | 139° |
| 2026-05-05 20:57 | 49.95467 | 15.30020 | 34742 ft | 448 kts | 139° |
| 2026-05-05 20:58 | 49.90916 | 15.36718 | 34743 ft | 448 kts | 139° |
| 2026-05-05 20:58 | 49.86397 | 15.43354 | 34743 ft | 448 kts | 139° |
| 2026-05-05 20:59 | 49.81903 | 15.49958 | 34740 ft | 448 kts | 139° |
| 2026-05-05 20:59 | 49.77379 | 15.56581 | 34741 ft | 448 kts | 139° |
| 2026-05-05 21:00 | 49.72841 | 15.63191 | 34739 ft | 448 kts | 139° |
| 2026-05-05 21:00 | 49.68304 | 15.69793 | 34746 ft | 448 kts | 139° |
| 2026-05-05 21:01 | 49.63755 | 15.76388 | 34756 ft | 449 kts | 139° |
| 2026-05-05 21:01 | 49.59198 | 15.82974 | 34755 ft | 449 kts | 139° |
| 2026-05-05 21:02 | 49.54639 | 15.89561 | 34576 ft | 450 kts | 139° |
| 2026-05-05 21:02 | 49.52351 | 15.92859 | 34325 ft | 450 kts | 139° |
| 2026-05-05 21:02 | 49.50069 | 15.96143 | 34088 ft | 450 kts | 139° |
| 2026-05-05 21:03 | 49.47782 | 15.99431 | 33817 ft | 450 kts | 139° |
| 2026-05-05 21:03 | 49.45485 | 16.02724 | 32840 ft | 453 kts | 139° |
| 2026-05-05 21:03 | 49.43142 | 16.05981 | 31764 ft | 456 kts | 144° |
| 2026-05-05 21:03 | 49.40449 | 16.08450 | 30539 ft | 447 kts | 160° |
| 2026-05-05 21:04 | 49.37512 | 16.09814 | 29311 ft | 438 kts | 168° |
| 2026-05-05 21:04 | 49.34571 | 16.10906 | 28040 ft | 431 kts | 168° |
| 2026-05-05 21:04 | 49.31669 | 16.11974 | 26834 ft | 428 kts | 168° |
| 2026-05-05 21:04 | 49.28855 | 16.13005 | 25708 ft | 395 kts | 168° |
| 2026-05-05 21:05 | 49.26257 | 16.13960 | 24711 ft | 377 kts | 168° |
| 2026-05-05 21:05 | 49.23738 | 16.14883 | 23782 ft | 370 kts | 168° |
| 2026-05-05 21:05 | 49.21295 | 16.15779 | 22809 ft | 348 kts | 168° |
| 2026-05-05 21:05 | 49.18996 | 16.16625 | 21851 ft | 347 kts | 168° |
| 2026-05-05 21:06 | 49.16487 | 16.17534 | 20841 ft | 388 kts | 168° |
| 2026-05-05 21:06 | 49.13824 | 16.18498 | 19799 ft | 398 kts | 168° |
| 2026-05-05 21:06 | 49.11107 | 16.19484 | 18777 ft | 405 kts | 168° |
| 2026-05-05 21:06 | 49.08339 | 16.20492 | 17756 ft | 412 kts | 167° |
| 2026-05-05 21:07 | 49.05559 | 16.21510 | 17041 ft | 408 kts | 167° |
| 2026-05-05 21:07 | 49.02859 | 16.22500 | 16462 ft | 401 kts | 167° |
| 2026-05-05 21:07 | 49.00160 | 16.23490 | 15867 ft | 396 kts | 167° |
| 2026-05-05 21:07 | 48.97499 | 16.24466 | 15314 ft | 391 kts | 167° |
| 2026-05-05 21:08 | 48.94871 | 16.25424 | 14757 ft | 386 kts | 168° |
| 2026-05-05 21:08 | 48.92278 | 16.26364 | 14225 ft | 381 kts | 168° |
| 2026-05-05 21:08 | 48.89705 | 16.27293 | 13667 ft | 378 kts | 168° |
| 2026-05-05 21:08 | 48.87155 | 16.28215 | 13056 ft | 375 kts | 168° |
| 2026-05-05 21:09 | 48.84631 | 16.29129 | 12461 ft | 371 kts | 168° |
| 2026-05-05 21:09 | 48.82134 | 16.30033 | 11856 ft | 367 kts | 168° |
| 2026-05-05 21:09 | 48.79655 | 16.30931 | 11222 ft | 365 kts | 168° |
| 2026-05-05 21:09 | 48.77201 | 16.31816 | 10848 ft | 356 kts | 168° |
| 2026-05-05 21:10 | 48.74850 | 16.32659 | 10722 ft | 339 kts | 168° |
| 2026-05-05 21:10 | 48.72603 | 16.33464 | 10588 ft | 325 kts | 168° |
| 2026-05-05 21:10 | 48.70447 | 16.34243 | 10478 ft | 312 kts | 167° |
| 2026-05-05 21:10 | 48.68372 | 16.34995 | 10359 ft | 301 kts | 168° |
| 2026-05-05 21:11 | 48.66362 | 16.35718 | 10132 ft | 294 kts | 168° |
| 2026-05-05 21:11 | 48.64386 | 16.36426 | 9916 ft | 289 kts | 168° |
| 2026-05-05 21:11 | 48.62432 | 16.37127 | 9798 ft | 288 kts | 168° |
| 2026-05-05 21:11 | 48.60479 | 16.37822 | 9675 ft | 288 kts | 168° |
| 2026-05-05 21:12 | 48.58525 | 16.38515 | 9549 ft | 288 kts | 168° |
| 2026-05-05 21:12 | 48.56571 | 16.39209 | 9309 ft | 288 kts | 168° |
| 2026-05-05 21:12 | 48.54605 | 16.39908 | 8622 ft | 293 kts | 168° |
| 2026-05-05 21:12 | 48.52694 | 16.40592 | 8046 ft | 269 kts | 168° |
| 2026-05-05 21:13 | 48.50890 | 16.41271 | 7025 ft | 262 kts | 166° |
| 2026-05-05 21:13 | 48.49142 | 16.42006 | 6380 ft | 274 kts | 166° |
| 2026-05-05 21:13 | 48.47316 | 16.42776 | 6202 ft | 266 kts | 166° |
| 2026-05-05 21:13 | 48.45583 | 16.43494 | 6140 ft | 250 kts | 166° |
| 2026-05-05 21:14 | 48.43953 | 16.44190 | 6082 ft | 238 kts | 166° |
| 2026-05-05 21:14 | 48.42393 | 16.44860 | 6008 ft | 228 kts | 166° |
| 2026-05-05 21:14 | 48.40899 | 16.45500 | 5911 ft | 219 kts | 166° |
| 2026-05-05 21:14 | 48.39484 | 16.46106 | 5820 ft | 210 kts | 166° |
| 2026-05-05 21:15 | 48.38090 | 16.46702 | 5724 ft | 207 kts | 167° |
| 2026-05-05 21:15 | 48.36707 | 16.47293 | 5637 ft | 207 kts | 167° |
| 2026-05-05 21:15 | 48.35309 | 16.47890 | 5328 ft | 211 kts | 167° |
| 2026-05-05 21:15 | 48.33890 | 16.48497 | 5049 ft | 212 kts | 167° |
| 2026-05-05 21:16 | 48.32466 | 16.49105 | 4750 ft | 211 kts | 168° |
| 2026-05-05 21:16 | 48.31095 | 16.49692 | 4480 ft | 198 kts | 168° |
| 2026-05-05 21:16 | 48.29824 | 16.50236 | 4214 ft | 182 kts | 168° |
| 2026-05-05 21:16 | 48.28651 | 16.50737 | 3969 ft | 169 kts | 169° |
| 2026-05-05 21:17 | 48.27560 | 16.51202 | 3752 ft | 158 kts | 169° |
| 2026-05-05 21:17 | 48.26523 | 16.51642 | 3553 ft | 153 kts | 169° |
| 2026-05-05 21:17 | 48.25512 | 16.52071 | 3367 ft | 150 kts | 169° |
| 2026-05-05 21:17 | 48.24519 | 16.52494 | 3169 ft | 147 kts | 170° |
| 2026-05-05 21:18 | 48.23541 | 16.52909 | 2964 ft | 145 kts | 171° |
| 2026-05-05 21:18 | 48.22577 | 16.53319 | 2785 ft | 142 kts | 169° |
| 2026-05-05 21:18 | 48.21635 | 16.53720 | 2594 ft | 139 kts | 169° |
| 2026-05-05 21:18 | 48.20715 | 16.54111 | 2422 ft | 136 kts | 169° |
| 2026-05-05 21:19 | 48.19812 | 16.54494 | 2242 ft | 134 kts | 169° |
| 2026-05-05 21:19 | 48.18925 | 16.54870 | 2073 ft | 134 kts | 168° |
| 2026-05-05 21:19 | 48.18031 | 16.55249 | 1889 ft | 133 kts | 167° |
| 2026-05-05 21:19 | 48.17140 | 16.55628 | 1715 ft | 133 kts | 167° |
| 2026-05-05 21:20 | 48.16254 | 16.56003 | 1529 ft | 133 kts | 166° |
| 2026-05-05 21:20 | 48.15357 | 16.56383 | 1340 ft | 135 kts | 163° |
| 2026-05-05 21:20 | 48.14459 | 16.56769 | 1154 ft | 134 kts | 164° |
| 2026-05-05 21:20 | 48.13562 | 16.57153 | 968 ft | 134 kts | 165° |
| 2026-05-05 21:21 | 48.12667 | 16.57533 | 803 ft | 133 kts | 165° |
| 2026-05-05 21:21 | 48.11775 | 16.57894 | 635 ft | 132 kts | 164° |
| 2026-05-05 21:21 | 48.10989 | 16.58237 | 613 ft | 101 kts | 164° |
| 2026-05-05 21:21 | 48.10524 | 16.58433 | 612 ft | 44 kts | 165° |
| 2026-05-05 21:22 | 48.10334 | 16.58465 | 609 ft | 22 kts | 187° |
| 2026-05-05 21:22 | 48.10198 | 16.58427 | 615 ft | 15 kts | 195° |
| 2026-05-05 21:22 | 48.10126 | 16.58375 | 617 ft | 11 kts | 218° |
| 2026-05-05 21:22 | 48.10091 | 16.58270 | 617 ft | 11 kts | 256° |
| 2026-05-05 21:23 | 48.10126 | 16.58185 | 612 ft | 10 kts | 334° |
| 2026-05-05 21:23 | 48.10185 | 16.58156 | 612 ft | 8 kts | 343° |
| 2026-05-05 21:23 | 48.10251 | 16.58128 | 614 ft | 13 kts | 344° |
| 2026-05-05 21:23 | 48.10348 | 16.58089 | 614 ft | 14 kts | 345° |
| 2026-05-05 21:24 | 48.10441 | 16.58050 | 612 ft | 13 kts | 344° |
| 2026-05-05 21:24 | 48.10527 | 16.58013 | 620 ft | 12 kts | 344° |
| 2026-05-05 21:24 | 48.10614 | 16.57976 | 612 ft | 15 kts | 344° |
| 2026-05-05 21:24 | 48.10682 | 16.57947 | 620 ft | 15 kts | 344° |
| 2026-05-05 21:25 | 48.10781 | 16.57905 | 613 ft | 16 kts | 344° |
| 2026-05-05 21:25 | 48.10886 | 16.57860 | 619 ft | 17 kts | 344° |
| 2026-05-05 21:25 | 48.11009 | 16.57806 | 615 ft | 18 kts | 335° |
| 2026-05-05 21:25 | 48.11080 | 16.57670 | 617 ft | 16 kts | 296° |
| 2026-05-05 21:26 | 48.11131 | 16.57513 | 615 ft | 20 kts | 296° |
| 2026-05-05 21:26 | 48.11192 | 16.57326 | 615 ft | 19 kts | 296° |
| 2026-05-05 21:26 | 48.11256 | 16.57132 | 619 ft | 21 kts | 296° |
| 2026-05-05 21:26 | 48.11318 | 16.56937 | 620 ft | 22 kts | 295° |
| 2026-05-05 21:27 | 48.11386 | 16.56728 | 620 ft | 25 kts | 296° |
| 2026-05-05 21:27 | 48.11465 | 16.56487 | 621 ft | 26 kts | 295° |
| 2026-05-05 21:27 | 48.11546 | 16.56236 | 618 ft | 28 kts | 296° |
| 2026-05-05 21:27 | 48.11635 | 16.55970 | 619 ft | 30 kts | 297° |
| 2026-05-05 21:28 | 48.11689 | 16.55809 | 617 ft | 9 kts | 308° |
| 2026-05-05 21:28 | 48.11749 | 16.55797 | 612 ft | 9 kts | 22° |
| 2026-05-05 21:28 | 48.11804 | 16.55834 | 609 ft | 10 kts | 26° |
| 2026-05-05 21:28 | 48.11868 | 16.55881 | 617 ft | 10 kts | 26° |
| 2026-05-05 21:29 | 48.11916 | 16.55874 | 615 ft | 7 kts | 300° |
| 2026-05-05 21:29 | 48.11931 | 16.55824 | 611 ft | 2 kts | 291° |
| 2026-05-05 21:29 | 48.11934 | 16.55814 | 623 ft | 1 kts | 293° |
| 2026-05-05 21:29 | 48.11935 | 16.55809 | 622 ft | 1 kts | 294° |
| 2026-05-05 21:30 | 48.11938 | 16.55800 | 621 ft | 0 kts | 295° |